sensor_id;sensor_type;location;lat;lon;timestamp;pressure;altitude;pressure_sealevel;temperature;humidity
52535;BME280;38443;53.164;5.802;2023-02-28T00:00:41;103416.59;;;2.38;100.00
52535;BME280;38443;53.164;5.802;2023-02-28T00:03:06;103419.16;;;2.36;100.00
52535;BME280;38443;53.164;5.802;2023-02-28T00:05:32;103408.66;;;2.38;100.00
52535;BME280;38443;53.164;5.802;2023-02-28T00:07:58;103411.31;;;2.38;100.00
52535;BME280;38443;53.164;5.802;2023-02-28T00:10:28;103410.53;;;2.40;100.00
52535;BME280;38443;53.164;5.802;2023-02-28T00:12:55;103408.59;;;2.36;100.00
52535;BME280;38443;53.164;5.802;2023-02-28T00:15:22;103398.94;;;2.37;100.00
52535;BME280;38443;53.164;5.802;2023-02-28T00:17:48;103398.88;;;2.35;100.00
52535;BME280;38443;53.164;5.802;2023-02-28T00:20:14;103401.44;;;2.34;100.00
52535;BME280;38443;53.164;5.802;2023-02-28T00:22:43;103406.72;;;2.34;100.00
52535;BME280;38443;53.164;5.802;2023-02-28T00:25:10;103403.25;;;2.35;100.00
52535;BME280;38443;53.164;5.802;2023-02-28T00:27:37;103407.69;;;2.36;100.00
52535;BME280;38443;53.164;5.802;2023-02-28T00:30:03;103397.28;;;2.39;100.00
52535;BME280;38443;53.164;5.802;2023-02-28T00:32:29;103397.28;;;2.39;100.00
52535;BME280;38443;53.164;5.802;2023-02-28T00:34:55;103401.88;;;2.43;100.00
52535;BME280;38443;53.164;5.802;2023-02-28T00:37:20;103413.34;;;2.44;100.00
52535;BME280;38443;53.164;5.802;2023-02-28T00:39:45;103405.47;;;2.45;100.00
52535;BME280;38443;53.164;5.802;2023-02-28T00:42:10;103409.03;;;2.46;100.00
52535;BME280;38443;53.164;5.802;2023-02-28T00:44:36;103408.25;;;2.48;100.00
52535;BME280;38443;53.164;5.802;2023-02-28T00:47:01;103407.34;;;2.48;100.00
52535;BME280;38443;53.164;5.802;2023-02-28T00:49:27;103405.84;;;2.53;100.00
52535;BME280;38443;53.164;5.802;2023-02-28T00:51:53;103404.91;;;2.52;100.00
52535;BME280;38443;53.164;5.802;2023-02-28T00:54:20;103406.81;;;2.55;100.00
52535;BME280;38443;53.164;5.802;2023-02-28T00:56:45;103402.53;;;2.58;100.00
52535;BME280;38443;53.164;5.802;2023-02-28T00:59:11;103405.41;;;2.63;100.00
52535;BME280;38443;53.164;5.802;2023-02-28T01:01:37;103409.84;;;2.64;100.00
52535;BME280;38443;53.164;5.802;2023-02-28T01:04:02;103406.50;;;2.68;100.00
52535;BME280;38443;53.164;5.802;2023-02-28T01:06:28;103405.59;;;2.68;100.00
52535;BME280;38443;53.164;5.802;2023-02-28T01:08:53;103406.50;;;2.68;100.00
52535;BME280;38443;53.164;5.802;2023-02-28T01:11:19;103402.00;;;2.66;100.00
52535;BME280;38443;53.164;5.802;2023-02-28T01:13:44;103404.81;;;2.70;100.00
52535;BME280;38443;53.164;5.802;2023-02-28T01:16:11;103407.44;;;2.69;100.00
52535;BME280;38443;53.164;5.802;2023-02-28T01:18:37;103401.38;;;2.71;100.00
52535;BME280;38443;53.164;5.802;2023-02-28T01:21:04;103395.28;;;2.74;100.00
52535;BME280;38443;53.164;5.802;2023-02-28T01:23:30;103400.66;;;2.75;100.00
52535;BME280;38443;53.164;5.802;2023-02-28T01:25:55;103405.25;;;2.79;100.00
52535;BME280;38443;53.164;5.802;2023-02-28T01:28:21;103402.44;;;2.76;100.00
52535;BME280;38443;53.164;5.802;2023-02-28T01:30:50;103402.53;;;2.78;100.00
52535;BME280;38443;53.164;5.802;2023-02-28T01:33:15;103393.53;;;2.74;100.00
52535;BME280;38443;53.164;5.802;2023-02-28T01:35:40;103395.28;;;2.74;100.00
52535;BME280;38443;53.164;5.802;2023-02-28T01:38:06;103382.69;;;2.68;100.00
52535;BME280;38443;53.164;5.802;2023-02-28T01:40:31;103368.38;;;2.63;100.00
52535;BME280;38443;53.164;5.802;2023-02-28T01:42:57;103373.44;;;2.58;100.00
52535;BME280;38443;53.164;5.802;2023-02-28T01:45:27;103372.47;;;2.56;100.00
52535;BME280;38443;53.164;5.802;2023-02-28T01:48:14;103374.16;;;2.54;100.00
52535;BME280;38443;53.164;5.802;2023-02-28T01:50:41;103366.03;;;2.50;100.00
52535;BME280;38443;53.164;5.802;2023-02-28T01:53:14;103367.69;;;2.48;100.00
52535;BME280;38443;53.164;5.802;2023-02-28T01:55:42;103351.72;;;2.45;100.00
52535;BME280;38443;53.164;5.802;2023-02-28T01:58:10;103353.44;;;2.44;100.00
52535;BME280;38443;53.164;5.802;2023-02-28T02:00:35;103360.38;;;2.42;100.00
52535;BME280;38443;53.164;5.802;2023-02-28T02:03:07;103360.28;;;2.39;100.00
52535;BME280;38443;53.164;5.802;2023-02-28T02:05:36;103362.06;;;2.40;100.00
52535;BME280;38443;53.164;5.802;2023-02-28T02:08:05;103363.03;;;2.42;100.00
52535;BME280;38443;53.164;5.802;2023-02-28T02:10:47;103363.88;;;2.41;100.00
52535;BME280;38443;53.164;5.802;2023-02-28T02:16:14;103368.25;;;2.40;100.00
52535;BME280;38443;53.164;5.802;2023-02-28T02:27:35;103359.91;;;2.51;100.00
52535;BME280;38443;53.164;5.802;2023-02-28T02:38:35;103352.59;;;2.65;100.00
52535;BME280;38443;53.164;5.802;2023-02-28T02:41:49;103354.47;;;2.67;100.00
52535;BME280;38443;53.164;5.802;2023-02-28T02:44:31;103350.94;;;2.67;100.00
52535;BME280;38443;53.164;5.802;2023-02-28T02:47:09;103356.34;;;2.70;100.00
52535;BME280;38443;53.164;5.802;2023-02-28T02:49:38;103347.44;;;2.68;100.00
52535;BME280;38443;53.164;5.802;2023-02-28T02:52:07;103345.63;;;2.67;100.00
52535;BME280;38443;53.164;5.802;2023-02-28T02:54:37;103347.25;;;2.63;100.00
52535;BME280;38443;53.164;5.802;2023-02-28T02:57:07;103345.34;;;2.60;100.00
52535;BME280;38443;53.164;5.802;2023-02-28T02:59:35;103341.88;;;2.62;100.00
52535;BME280;38443;53.164;5.802;2023-02-28T03:02:04;103336.84;;;2.68;100.00
52535;BME280;38443;53.164;5.802;2023-02-28T03:04:34;103334.47;;;2.74;100.00
52535;BME280;38443;53.164;5.802;2023-02-28T03:07:01;103338.28;;;2.80;100.00
52535;BME280;38443;53.164;5.802;2023-02-28T03:09:26;103335.97;;;2.88;100.00
52535;BME280;38443;53.164;5.802;2023-02-28T03:11:54;103338.69;;;2.90;100.00
52535;BME280;38443;53.164;5.802;2023-02-28T03:25:24;103339.34;;;3.05;100.00
52535;BME280;38443;53.164;5.802;2023-02-28T03:33:51;103335.34;;;3.15;100.00
52535;BME280;38443;53.164;5.802;2023-02-28T03:36:23;103345.00;;;3.14;100.00
52535;BME280;38443;53.164;5.802;2023-02-28T03:39:39;103335.34;;;3.15;100.00
52535;BME280;38443;53.164;5.802;2023-02-28T03:41:49;103334.47;;;3.16;100.00
52535;BME280;38443;53.164;5.802;2023-02-28T03:44:24;103334.56;;;3.17;100.00
52535;BME280;38443;53.164;5.802;2023-02-28T03:47:00;103328.41;;;3.18;100.00
52535;BME280;38443;53.164;5.802;2023-02-28T03:49:32;103331.00;;;3.17;100.00
52535;BME280;38443;53.164;5.802;2023-02-28T03:52:02;103331.91;;;3.17;100.00
52535;BME280;38443;53.164;5.802;2023-02-28T03:54:32;103323.97;;;3.17;100.00
52535;BME280;38443;53.164;5.802;2023-02-28T03:57:23;103322.28;;;3.19;100.00
52535;BME280;38443;53.164;5.802;2023-02-28T03:59:56;103319.56;;;3.18;100.00
52535;BME280;38443;53.164;5.802;2023-02-28T04:02:24;103309.84;;;3.17;100.00
52535;BME280;38443;53.164;5.802;2023-02-28T04:04:49;103305.50;;;3.19;100.00
52535;BME280;38443;53.164;5.802;2023-02-28T04:07:16;103304.59;;;3.18;100.00
52535;BME280;38443;53.164;5.802;2023-02-28T04:09:42;103303.84;;;3.21;100.00
52535;BME280;38443;53.164;5.802;2023-02-28T04:12:08;103306.41;;;3.19;100.00
52535;BME280;38443;53.164;5.802;2023-02-28T04:14:33;103317.88;;;3.20;100.00
52535;BME280;38443;53.164;5.802;2023-02-28T04:16:59;103321.44;;;3.20;100.00
52535;BME280;38443;53.164;5.802;2023-02-28T04:19:24;103328.47;;;3.20;100.00
52535;BME280;38443;53.164;5.802;2023-02-28T04:21:50;103319.03;;;3.27;100.00
52535;BME280;38443;53.164;5.802;2023-02-28T04:24:25;103322.53;;;3.26;100.00
52535;BME280;38443;53.164;5.802;2023-02-28T04:26:53;103333.13;;;3.26;100.00
52535;BME280;38443;53.164;5.802;2023-02-28T04:29:30;103324.41;;;3.28;100.00
52535;BME280;38443;53.164;5.802;2023-02-28T04:31:58;103318.38;;;3.32;100.00
52535;BME280;38443;53.164;5.802;2023-02-28T04:34:25;103321.09;;;3.34;100.00
52535;BME280;38443;53.164;5.802;2023-02-28T04:36:51;103321.09;;;3.34;100.00
52535;BME280;38443;53.164;5.802;2023-02-28T04:39:23;103318.53;;;3.35;100.00
52535;BME280;38443;53.164;5.802;2023-02-28T04:41:49;103318.53;;;3.35;100.00
52535;BME280;38443;53.164;5.802;2023-02-28T04:44:15;103320.22;;;3.33;100.00
52535;BME280;38443;53.164;5.802;2023-02-28T04:46:41;103323.88;;;3.37;100.00
52535;BME280;38443;53.164;5.802;2023-02-28T04:49:06;103317.66;;;3.36;100.00
52535;BME280;38443;53.164;5.802;2023-02-28T04:51:33;103319.41;;;3.36;100.00
52535;BME280;38443;53.164;5.802;2023-02-28T04:53:58;103320.31;;;3.36;100.00
52535;BME280;38443;53.164;5.802;2023-02-28T04:56:23;103316.78;;;3.36;100.00
52535;BME280;38443;53.164;5.802;2023-02-28T04:58:49;103321.28;;;3.38;100.00
52535;BME280;38443;53.164;5.802;2023-02-28T05:01:22;103331.94;;;3.40;100.00
52535;BME280;38443;53.164;5.802;2023-02-28T05:03:48;103326.72;;;3.42;100.00
52535;BME280;38443;53.164;5.802;2023-02-28T05:06:13;103323.28;;;3.44;100.00
52535;BME280;38443;53.164;5.802;2023-02-28T05:08:39;103328.66;;;3.46;100.00
52535;BME280;38443;53.164;5.802;2023-02-28T05:11:06;103329.59;;;3.48;100.00
52535;BME280;38443;53.164;5.802;2023-02-28T05:13:32;103324.16;;;3.45;100.00
52535;BME280;38443;53.164;5.802;2023-02-28T05:15:57;103327.78;;;3.47;100.00
52535;BME280;38443;53.164;5.802;2023-02-28T05:18:22;103333.06;;;3.47;100.00
52535;BME280;38443;53.164;5.802;2023-02-28T05:20:48;103330.50;;;3.48;100.00
52535;BME280;38443;53.164;5.802;2023-02-28T05:23:14;103333.88;;;3.44;100.00
52535;BME280;38443;53.164;5.802;2023-02-28T05:25:40;103327.69;;;3.44;100.00
52535;BME280;38443;53.164;5.802;2023-02-28T05:28:05;103326.81;;;3.45;100.00
52535;BME280;38443;53.164;5.802;2023-02-28T05:30:31;103333.75;;;3.41;100.00
52535;BME280;38443;53.164;5.802;2023-02-28T05:32:56;103332.97;;;3.44;100.00
52535;BME280;38443;53.164;5.802;2023-02-28T05:35:22;103336.44;;;3.43;100.00
52535;BME280;38443;53.164;5.802;2023-02-28T05:37:47;103328.56;;;3.44;100.00
52535;BME280;38443;53.164;5.802;2023-02-28T05:40:13;103325.84;;;3.43;100.00
52535;BME280;38443;53.164;5.802;2023-02-28T05:42:38;103330.50;;;3.48;100.00
52535;BME280;38443;53.164;5.802;2023-02-28T05:45:04;103330.31;;;3.44;100.00
52535;BME280;38443;53.164;5.802;2023-02-28T05:47:30;103334.84;;;3.46;100.00
52535;BME280;38443;53.164;5.802;2023-02-28T05:49:56;103330.50;;;3.48;100.00
52535;BME280;38443;53.164;5.802;2023-02-28T05:52:21;103329.34;;;3.42;100.00
52535;BME280;38443;53.164;5.802;2023-02-28T05:54:47;103334.72;;;3.22;100.00
52535;BME280;38443;53.164;5.802;2023-02-28T05:57:12;103337.41;;;3.01;100.00
52535;BME280;38443;53.164;5.802;2023-02-28T05:59:38;103339.66;;;2.92;100.00
52535;BME280;38443;53.164;5.802;2023-02-28T06:02:06;103333.19;;;2.85;100.00
52535;BME280;38443;53.164;5.802;2023-02-28T06:04:31;103345.47;;;2.83;100.00
52535;BME280;38443;53.164;5.802;2023-02-28T06:06:57;103327.66;;;2.79;100.00
52535;BME280;38443;53.164;5.802;2023-02-28T06:09:22;103336.06;;;2.70;100.00
52535;BME280;38443;53.164;5.802;2023-02-28T06:11:48;103339.16;;;2.60;100.00
52535;BME280;38443;53.164;5.802;2023-02-28T06:14:18;103339.78;;;2.54;100.00
52535;BME280;38443;53.164;5.802;2023-02-28T06:16:44;103345.47;;;2.43;100.00
52535;BME280;38443;53.164;5.802;2023-02-28T06:19:10;103349.00;;;2.24;100.00
52535;BME280;38443;53.164;5.802;2023-02-28T06:21:36;103349.34;;;2.12;100.00
52535;BME280;38443;53.164;5.802;2023-02-28T06:24:01;103348.63;;;1.96;100.00
52535;BME280;38443;53.164;5.802;2023-02-28T06:26:28;103349.88;;;1.85;100.00
52535;BME280;38443;53.164;5.802;2023-02-28T06:28:53;103349.28;;;1.73;100.00
52535;BME280;38443;53.164;5.802;2023-02-28T06:31:19;103355.09;;;1.66;100.00
52535;BME280;38443;53.164;5.802;2023-02-28T06:33:45;103360.16;;;1.61;100.00
52535;BME280;38443;53.164;5.802;2023-02-28T06:36:12;103364.47;;;1.59;100.00
52535;BME280;38443;53.164;5.802;2023-02-28T06:38:39;103362.63;;;1.58;100.00
52535;BME280;38443;53.164;5.802;2023-02-28T06:41:05;103374.03;;;1.57;100.00
52535;BME280;38443;53.164;5.802;2023-02-28T06:43:33;103376.38;;;1.51;100.00
52535;BME280;38443;53.164;5.802;2023-02-28T06:46:01;103376.91;;;1.44;100.00
52535;BME280;38443;53.164;5.802;2023-02-28T06:48:27;103392.53;;;1.39;100.00
52535;BME280;38443;53.164;5.802;2023-02-28T06:51:01;103384.38;;;1.34;100.00
52535;BME280;38443;53.164;5.802;2023-02-28T06:53:26;103393.97;;;1.32;100.00
52535;BME280;38443;53.164;5.802;2023-02-28T06:55:51;103393.78;;;1.29;100.00
52535;BME280;38443;53.164;5.802;2023-02-28T06:58:17;103401.72;;;1.29;100.00
52535;BME280;38443;53.164;5.802;2023-02-28T07:00:44;103399.97;;;1.30;100.00
52535;BME280;38443;53.164;5.802;2023-02-28T07:03:10;103406.97;;;1.29;100.00
52535;BME280;38443;53.164;5.802;2023-02-28T07:05:36;103414.72;;;1.26;100.00
52535;BME280;38443;53.164;5.802;2023-02-28T07:08:02;103408.41;;;1.23;100.00
52535;BME280;38443;53.164;5.802;2023-02-28T07:10:28;103417.91;;;1.19;100.00
52535;BME280;38443;53.164;5.802;2023-02-28T07:12:54;103423.00;;;1.16;100.00
52535;BME280;38443;53.164;5.802;2023-02-28T07:15:19;103421.13;;;1.13;100.00
52535;BME280;38443;53.164;5.802;2023-02-28T07:17:44;103423.69;;;1.12;100.00
52535;BME280;38443;53.164;5.802;2023-02-28T07:20:10;103425.50;;;1.13;100.00
52535;BME280;38443;53.164;5.802;2023-02-28T07:22:36;103428.72;;;1.07;100.00
52535;BME280;38443;53.164;5.802;2023-02-28T07:25:01;103429.63;;;1.08;100.00
52535;BME280;38443;53.164;5.802;2023-02-28T07:27:26;103427.50;;;1.01;100.00
52535;BME280;38443;53.164;5.802;2023-02-28T07:29:52;103437.06;;;0.98;100.00
52535;BME280;38443;53.164;5.802;2023-02-28T07:32:19;103436.00;;;0.95;100.00
52535;BME280;38443;53.164;5.802;2023-02-28T07:34:44;103443.69;;;0.90;100.00
52535;BME280;38443;53.164;5.802;2023-02-28T07:37:10;103440.69;;;0.84;100.00
52535;BME280;38443;53.164;5.802;2023-02-28T07:39:35;103441.69;;;0.86;100.00
52535;BME280;38443;53.164;5.802;2023-02-28T07:42:03;103445.97;;;0.84;100.00
52535;BME280;38443;53.164;5.802;2023-02-28T07:44:29;103441.53;;;0.83;100.00
52535;BME280;38443;53.164;5.802;2023-02-28T07:46:54;103443.19;;;0.81;100.00
52535;BME280;38443;53.164;5.802;2023-02-28T07:49:19;103444.16;;;0.83;100.00
52535;BME280;38443;53.164;5.802;2023-02-28T07:51:45;103442.44;;;0.84;100.00
52535;BME280;38443;53.164;5.802;2023-02-28T07:54:10;103445.97;;;0.84;100.00
52535;BME280;38443;53.164;5.802;2023-02-28T07:56:35;103443.50;;;0.87;100.00
52535;BME280;38443;53.164;5.802;2023-02-28T07:59:01;103440.56;;;0.81;100.00
52535;BME280;38443;53.164;5.802;2023-02-28T08:01:26;103449.34;;;0.82;100.00
52535;BME280;38443;53.164;5.802;2023-02-28T08:03:52;103448.28;;;0.78;100.00
52535;BME280;38443;53.164;5.802;2023-02-28T08:06:23;103448.28;;;0.78;100.00
52535;BME280;38443;53.164;5.802;2023-02-28T08:08:49;103451.00;;;0.79;100.00
52535;BME280;38443;53.164;5.802;2023-02-28T08:11:15;103451.09;;;0.81;100.00
52535;BME280;38443;53.164;5.802;2023-02-28T08:13:41;103454.88;;;0.86;100.00
52535;BME280;38443;53.164;5.802;2023-02-28T08:16:09;103452.31;;;0.88;100.00
52535;BME280;38443;53.164;5.802;2023-02-28T08:18:34;103463.03;;;0.91;100.00
52535;BME280;38443;53.164;5.802;2023-02-28T08:21:06;103464.13;;;0.94;100.00
52535;BME280;38443;53.164;5.802;2023-02-28T08:23:31;103457.84;;;0.92;100.00
52535;BME280;38443;53.164;5.802;2023-02-28T08:25:58;103466.75;;;0.94;100.00
52535;BME280;38443;53.164;5.802;2023-02-28T08:28:23;103461.38;;;0.93;100.00
52535;BME280;38443;53.164;5.802;2023-02-28T08:30:49;103468.53;;;0.95;100.00
52535;BME280;38443;53.164;5.802;2023-02-28T08:33:14;103470.50;;;0.99;100.00
52535;BME280;38443;53.164;5.802;2023-02-28T08:35:40;103472.25;;;0.99;100.00
52535;BME280;38443;53.164;5.802;2023-02-28T08:38:05;103475.97;;;1.03;100.00
52535;BME280;38443;53.164;5.802;2023-02-28T08:40:30;103480.63;;;1.08;100.00
52535;BME280;38443;53.164;5.802;2023-02-28T08:42:56;103480.91;;;1.13;100.00
52535;BME280;38443;53.164;5.802;2023-02-28T08:45:21;103485.31;;;1.14;100.00
52535;BME280;38443;53.164;5.802;2023-02-28T08:47:46;103484.59;;;1.16;100.00
52535;BME280;38443;53.164;5.802;2023-02-28T08:50:11;103484.75;;;1.19;100.00
52535;BME280;38443;53.164;5.802;2023-02-28T08:52:41;103488.22;;;1.18;100.00
52535;BME280;38443;53.164;5.802;2023-02-28T08:55:07;103481.44;;;1.24;100.00
52535;BME280;38443;53.164;5.802;2023-02-28T08:57:32;103480.94;;;1.31;100.00
52535;BME280;38443;53.164;5.802;2023-02-28T08:59:57;103474.16;;;1.36;100.00
52535;BME280;38443;53.164;5.802;2023-02-28T09:02:23;103476.97;;;1.39;100.00
52535;BME280;38443;53.164;5.802;2023-02-28T09:04:48;103478.38;;;1.32;100.00
52535;BME280;38443;53.164;5.802;2023-02-28T09:07:13;103480.41;;;1.38;100.00
52535;BME280;38443;53.164;5.802;2023-02-28T09:09:39;103479.06;;;1.46;100.00
52535;BME280;38443;53.164;5.802;2023-02-28T09:12:19;103491.00;;;1.56;100.00
52535;BME280;38443;53.164;5.802;2023-02-28T09:14:45;103483.84;;;1.53;100.00
52535;BME280;38443;53.164;5.802;2023-02-28T09:17:10;103490.00;;;1.54;100.00
52535;BME280;38443;53.164;5.802;2023-02-28T09:19:36;103482.72;;;1.66;100.00
52535;BME280;38443;53.164;5.802;2023-02-28T09:22:02;103486.72;;;1.76;100.00
52535;BME280;38443;53.164;5.802;2023-02-28T09:24:27;103479.03;;;1.81;100.00
52535;BME280;38443;53.164;5.802;2023-02-28T09:26:53;103480.84;;;1.82;100.00
52535;BME280;38443;53.164;5.802;2023-02-28T09:29:18;103472.69;;;1.95;100.00
52535;BME280;38443;53.164;5.802;2023-02-28T09:31:44;103476.22;;;2.13;100.00
52535;BME280;38443;53.164;5.802;2023-02-28T09:34:09;103466.44;;;2.30;100.00
52535;BME280;38443;53.164;5.802;2023-02-28T09:36:35;103477.47;;;2.39;100.00
52535;BME280;38443;53.164;5.802;2023-02-28T09:39:02;103469.13;;;2.50;100.00
52535;BME280;38443;53.164;5.802;2023-02-28T09:41:28;103468.78;;;2.62;100.00
52535;BME280;38443;53.164;5.802;2023-02-28T09:43:59;103463.22;;;2.75;100.00
52535;BME280;38443;53.164;5.802;2023-02-28T09:46:37;103472.84;;;2.73;100.00
52535;BME280;38443;53.164;5.802;2023-02-28T09:49:11;103471.22;;;2.76;100.00
52535;BME280;38443;53.164;5.802;2023-02-28T09:54:21;103482.28;;;2.87;100.00
52535;BME280;38443;53.164;5.802;2023-02-28T09:56:54;103481.41;;;2.87;100.00
52535;BME280;38443;53.164;5.802;2023-02-28T10:02:47;103489.19;;;3.03;100.00
52535;BME280;38443;53.164;5.802;2023-02-28T10:05:23;103487.44;;;3.04;100.00
52535;BME280;38443;53.164;5.802;2023-02-28T10:10:28;103482.75;;;3.17;100.00
52535;BME280;38443;53.164;5.802;2023-02-28T10:12:58;103477.91;;;3.28;100.00
52535;BME280;38443;53.164;5.802;2023-02-28T10:15:27;103478.78;;;3.48;100.00
52535;BME280;38443;53.164;5.802;2023-02-28T10:17:58;103465.88;;;3.56;100.00
52535;BME280;38443;53.164;5.802;2023-02-28T10:20:25;103463.94;;;3.52;100.00
52535;BME280;38443;53.164;5.802;2023-02-28T10:23:05;103465.22;;;3.62;100.00
52535;BME280;38443;53.164;5.802;2023-02-28T10:25:36;103455.50;;;3.83;100.00
52535;BME280;38443;53.164;5.802;2023-02-28T10:30:36;103458.34;;;4.10;100.00
52535;BME280;38443;53.164;5.802;2023-02-28T10:33:04;103455.59;;;4.30;100.00
52535;BME280;38443;53.164;5.802;2023-02-28T10:35:30;103443.69;;;4.43;100.00
52535;BME280;38443;53.164;5.802;2023-02-28T10:37:57;103442.75;;;4.65;100.00
52535;BME280;38443;53.164;5.802;2023-02-28T10:42:56;103431.47;;;4.70;100.00
52535;BME280;38443;53.164;5.802;2023-02-28T10:45:22;103430.13;;;4.82;100.00
52535;BME280;38443;53.164;5.802;2023-02-28T10:47:59;103430.56;;;4.94;100.00
52535;BME280;38443;53.164;5.802;2023-02-28T10:52:53;103419.63;;;5.10;100.00
52535;BME280;38443;53.164;5.802;2023-02-28T10:55:21;103416.56;;;4.98;100.00
52535;BME280;38443;53.164;5.802;2023-02-28T10:57:47;103417.66;;;5.05;100.00
52535;BME280;38443;53.164;5.802;2023-02-28T11:00:14;103423.03;;;5.06;100.00
52535;BME280;38443;53.164;5.802;2023-02-28T11:02:40;103428.03;;;5.23;100.00
52535;BME280;38443;53.164;5.802;2023-02-28T11:05:33;103420.84;;;5.20;100.00
52535;BME280;38443;53.164;5.802;2023-02-28T11:08:05;103416.72;;;5.28;100.00
52535;BME280;38443;53.164;5.802;2023-02-28T11:10:32;103414.66;;;5.47;100.00
52535;BME280;38443;53.164;5.802;2023-02-28T11:13:00;103413.34;;;5.59;100.00
52535;BME280;38443;53.164;5.802;2023-02-28T11:15:33;103417.25;;;5.44;100.00
52535;BME280;38443;53.164;5.802;2023-02-28T11:20:36;103411.25;;;5.51;100.00
52535;BME280;38443;53.164;5.802;2023-02-28T11:23:02;103412.75;;;5.15;100.00
52535;BME280;38443;53.164;5.802;2023-02-28T11:25:34;103410.34;;;4.97;100.00
52535;BME280;38443;53.164;5.802;2023-02-28T11:28:03;103408.44;;;4.93;100.00
52535;BME280;38443;53.164;5.802;2023-02-28T11:30:40;103407.69;;;4.97;100.00
52535;BME280;38443;53.164;5.802;2023-02-28T11:33:22;103402.81;;;5.10;100.00
52535;BME280;38443;53.164;5.802;2023-02-28T11:35:49;103407.44;;;5.15;100.00
52535;BME280;38443;53.164;5.802;2023-02-28T11:38:15;103402.34;;;5.22;100.00
52535;BME280;38443;53.164;5.802;2023-02-28T11:40:46;103407.25;;;5.11;100.00
52535;BME280;38443;53.164;5.802;2023-02-28T11:46:26;103403.91;;;5.16;100.00
52535;BME280;38443;53.164;5.802;2023-02-28T11:56:33;103403.09;;;5.17;100.00
52535;BME280;38443;53.164;5.802;2023-02-28T11:59:29;103407.16;;;5.08;100.00
52535;BME280;38443;53.164;5.802;2023-02-28T12:05:10;103395.66;;;5.07;100.00
52535;BME280;38443;53.164;5.802;2023-02-28T12:10:29;103393.56;;;4.98;100.00
52535;BME280;38443;53.164;5.802;2023-02-28T12:28:46;103382.81;;;5.21;100.00
52535;BME280;38443;53.164;5.802;2023-02-28T12:31:19;103381.56;;;5.35;100.00
52535;BME280;38443;53.164;5.802;2023-02-28T12:33:58;103379.78;;;5.36;100.00
52535;BME280;38443;53.164;5.802;2023-02-28T12:36:24;103375.38;;;5.36;100.00
52535;BME280;38443;53.164;5.802;2023-02-28T12:39:15;103372.94;;;5.17;100.00
52535;BME280;38443;53.164;5.802;2023-02-28T12:41:47;103371.78;;;5.09;100.00
52535;BME280;38443;53.164;5.802;2023-02-28T12:44:20;103370.53;;;4.97;100.00
52535;BME280;38443;53.164;5.802;2023-02-28T12:46:51;103372.22;;;4.95;100.00
52535;BME280;38443;53.164;5.802;2023-02-28T12:52:11;103371.38;;;4.96;100.00
52535;BME280;38443;53.164;5.802;2023-02-28T12:54:53;103365.09;;;4.94;100.00
52535;BME280;38443;53.164;5.802;2023-02-28T13:00:23;103359.31;;;5.06;100.00
52535;BME280;38443;53.164;5.802;2023-02-28T13:06:23;103352.56;;;5.16;100.00
52535;BME280;38443;53.164;5.802;2023-02-28T13:09:10;103356.13;;;5.16;100.00
52535;BME280;38443;53.164;5.802;2023-02-28T13:11:43;103345.50;;;5.16;100.00
52535;BME280;38443;53.164;5.802;2023-02-28T13:14:35;103337.69;;;5.21;100.00
52535;BME280;38443;53.164;5.802;2023-02-28T13:24:52;103331.56;;;5.51;100.00
52535;BME280;38443;53.164;5.802;2023-02-28T13:29:43;103321.31;;;5.63;100.00
52535;BME280;38443;53.164;5.802;2023-02-28T13:35:12;103320.03;;;5.77;100.00
52535;BME280;38443;53.164;5.802;2023-02-28T13:37:35;103319.38;;;5.86;100.00
52535;BME280;38443;53.164;5.802;2023-02-28T13:40:32;103317.25;;;5.74;100.00
52535;BME280;38443;53.164;5.802;2023-02-28T13:43:05;103315.41;;;5.72;100.00
52535;BME280;38443;53.164;5.802;2023-02-28T13:45:32;103312.56;;;5.66;100.00
52535;BME280;38443;53.164;5.802;2023-02-28T13:48:15;103312.59;;;5.67;100.00
52535;BME280;38443;53.164;5.802;2023-02-28T13:50:42;103309.72;;;5.59;100.00
52535;BME280;38443;53.164;5.802;2023-02-28T14:04:46;103314.97;;;5.58;100.00
52535;BME280;38443;53.164;5.802;2023-02-28T14:06:52;103314.88;;;5.55;100.00
52535;BME280;38443;53.164;5.802;2023-02-28T14:11:54;103306.81;;;5.52;100.00
52535;BME280;38443;53.164;5.802;2023-02-28T14:17:03;103311.06;;;5.47;100.00
52535;BME280;38443;53.164;5.802;2023-02-28T14:19:30;103308.22;;;5.40;100.00
52535;BME280;38443;53.164;5.802;2023-02-28T14:22:12;103315.34;;;5.42;100.00
52535;BME280;38443;53.164;5.802;2023-02-28T14:27:38;103302.28;;;5.48;100.00
52535;BME280;38443;53.164;5.802;2023-02-28T14:36:04;103310.75;;;5.36;100.00
52535;BME280;38443;53.164;5.802;2023-02-28T14:38:35;103317.06;;;5.39;100.00
52535;BME280;38443;53.164;5.802;2023-02-28T14:41:04;103316.19;;;5.40;100.00
52535;BME280;38443;53.164;5.802;2023-02-28T14:43:36;103317.19;;;5.44;100.00
52535;BME280;38443;53.164;5.802;2023-02-28T14:46:02;103320.63;;;5.40;100.00
52535;BME280;38443;53.164;5.802;2023-02-28T14:48:29;103311.00;;;5.44;100.00
52535;BME280;38443;53.164;5.802;2023-02-28T14:51:00;103309.38;;;5.49;100.00
52535;BME280;38443;53.164;5.802;2023-02-28T14:53:28;103309.47;;;5.52;100.00
52535;BME280;38443;53.164;5.802;2023-02-28T14:55:54;103307.59;;;5.48;100.00
52535;BME280;38443;53.164;5.802;2023-02-28T14:58:25;103307.53;;;5.46;100.00
52535;BME280;38443;53.164;5.802;2023-02-28T15:00:53;103304.81;;;5.45;100.00
52535;BME280;38443;53.164;5.802;2023-02-28T15:03:20;103305.63;;;5.42;100.00
52535;BME280;38443;53.164;5.802;2023-02-28T15:05:58;103306.56;;;5.44;100.00
52535;BME280;38443;53.164;5.802;2023-02-28T15:08:24;103310.25;;;5.48;100.00
52535;BME280;38443;53.164;5.802;2023-02-28T15:13:23;103301.25;;;5.44;100.00
52535;BME280;38443;53.164;5.802;2023-02-28T15:18:26;103300.75;;;5.27;100.00